»·PEaware :: N454AH KSNA-KBLH

N454AH :: KSNA-KBLH

FLIGHT INFORMATION

Flight Status: Arrived
Operator: Privately registered:
United States
More flights under this callsign
Pilot: Andrew H. (17317)
Aircraft: PIPER PA-28R-201 ARROW
(P28R)
More flights by this aircraft type
Origin: KSNA John Wayne-Orange Co
United States
Destination: KBLH Blythe
United States
More flights between these airports :: More routes between these airports
Route: +
File this flight plan on PilotEdge
Remarks:
Altitude:
(Current/Filed)
7,500ft
Speed:
(Current/Filed)
135kts
Departed: 07-Feb-18 08:11 PM
Arrived: 07-Feb-18 09:24 PM
Distance/Time
Traveled:
158nm/1:13
Distance/Time
To Go:
Arrived

Flight Plot

Page will automatically refresh every two minutes.

Flight plan parsing failed; only flown route is shown


Map Options




Map Legend


Flown Route
Filed Route
Departure Airport
Arrival Airport
Navaid (VOR, NDB)
Fix

Horizontal Profiles

Position Reports

Time Latitude Longitude Heading Altitude Ground
Speed
07-Feb-18 19:20 33.671671 -117.867752 27 58ft 0kts
07-Feb-18 19:21 33.671671 -117.867752 27 58ft 0kts
07-Feb-18 19:22 33.671671 -117.867752 27 58ft 0kts
07-Feb-18 19:23 33.671671 -117.867752 27 58ft 0kts
07-Feb-18 19:24 33.671671 -117.867752 27 58ft 0kts
07-Feb-18 19:25 33.671671 -117.867752 27 58ft 0kts
07-Feb-18 19:26 33.671671 -117.867752 27 58ft 0kts
07-Feb-18 19:27 33.671671 -117.867752 27 58ft 0kts
07-Feb-18 19:28 33.671671 -117.867752 27 58ft 0kts
07-Feb-18 19:29 33.671671 -117.867752 27 58ft 0kts
07-Feb-18 19:30 33.671671 -117.867752 27 58ft 0kts
07-Feb-18 19:31 33.671671 -117.867752 27 58ft 0kts
07-Feb-18 19:32 33.671671 -117.867752 27 58ft 0kts
07-Feb-18 19:33 33.671671 -117.867752 27 58ft 0kts
07-Feb-18 19:34 33.671671 -117.867752 27 58ft 0kts
07-Feb-18 19:38 33.668052 -117.875347 205 58ft 0kts
07-Feb-18 19:39 33.668052 -117.875347 205 58ft 0kts
07-Feb-18 19:40 33.668052 -117.875347 205 58ft 0kts
07-Feb-18 19:41 33.668052 -117.875347 205 58ft 0kts
07-Feb-18 19:43 33.668052 -117.875347 205 58ft 0kts
07-Feb-18 19:44 33.668052 -117.875347 205 58ft 0kts
07-Feb-18 19:45 33.668052 -117.875347 205 58ft 0kts
07-Feb-18 19:46 33.668052 -117.875347 205 58ft 0kts
07-Feb-18 19:47 33.668052 -117.875347 205 58ft 0kts
07-Feb-18 19:48 33.668052 -117.875347 205 58ft 0kts
07-Feb-18 19:49 33.668052 -117.875347 205 58ft 0kts
07-Feb-18 19:50 33.668052 -117.875347 205 58ft 0kts
07-Feb-18 19:51 33.668052 -117.875347 205 58ft 0kts
07-Feb-18 19:52 33.668052 -117.875347 205 58ft 0kts
07-Feb-18 19:53 33.668052 -117.875347 205 58ft 0kts
07-Feb-18 19:54 33.668052 -117.875347 205 58ft 0kts
07-Feb-18 19:55 33.667977 -117.875302 113 58ft 0kts
07-Feb-18 19:56 33.667977 -117.875302 113 58ft 0kts
07-Feb-18 19:57 33.667977 -117.875302 113 58ft 0kts
07-Feb-18 19:58 33.667977 -117.875302 113 58ft 0kts
07-Feb-18 20:05 33.668052 -117.875347 205 58ft 0kts
07-Feb-18 20:06 33.668052 -117.875347 205 58ft 0kts
07-Feb-18 20:07 33.668052 -117.875347 205 58ft 0kts
07-Feb-18 20:08 33.668052 -117.875347 205 58ft 0kts
07-Feb-18 20:09 33.668052 -117.875347 205 58ft 0kts
07-Feb-18 20:10 33.668052 -117.875347 205 58ft 0kts
07-Feb-18 20:11 33.668375 -117.874855 22 58ft 5kts
07-Feb-18 20:12 33.670713 -117.873515 27 58ft 13kts
07-Feb-18 20:13 33.674498 -117.871117 26 58ft 15kts
07-Feb-18 20:14 33.677997 -117.868896 26 58ft 13kts
07-Feb-18 20:15 33.681188 -117.866973 49 58ft 11kts
07-Feb-18 20:16 33.681260 -117.866458 116 58ft 0kts
07-Feb-18 20:17 33.681133 -117.866190 119 58ft 5kts
07-Feb-18 20:18 33.670512 -117.871986 206 193ft 96kts
07-Feb-18 20:19 33.644462 -117.873956 128 1099ft 103kts
07-Feb-18 20:20 33.640186 -117.840104 96 1948ft 106kts
07-Feb-18 20:21 33.638139 -117.804564 93 2735ft 110kts
07-Feb-18 20:22 33.634943 -117.764982 93 3149ft 135kts
07-Feb-18 20:23 33.633154 -117.717269 92 3200ft 135kts
07-Feb-18 20:24 33.629800 -117.674222 104 4037ft 129kts
07-Feb-18 20:25 33.626743 -117.634779 85 5109ft 109kts
07-Feb-18 20:26 33.631450 -117.599471 74 6018ft 106kts
07-Feb-18 20:27 33.640003 -117.565100 77 6832ft 108kts
07-Feb-18 20:28 33.645194 -117.529254 89 7567ft 114kts
07-Feb-18 20:29 33.648027 -117.481551 88 7564ft 148kts
07-Feb-18 20:30 33.647154 -117.432378 90 7520ft 151kts
07-Feb-18 20:31 33.651123 -117.382823 83 7538ft 147kts
07-Feb-18 20:32 33.655046 -117.334656 84 7538ft 145kts
07-Feb-18 20:33 33.658561 -117.286599 85 7538ft 144kts
07-Feb-18 20:34 33.661993 -117.238263 85 7538ft 146kts
07-Feb-18 20:35 33.665418 -117.189503 85 7538ft 147kts
07-Feb-18 20:36 33.668828 -117.140634 85 7538ft 147kts
07-Feb-18 20:37 33.672232 -117.091583 85 7538ft 147kts
07-Feb-18 20:38 33.675600 -117.042776 85 7538ft 147kts
07-Feb-18 20:39 33.678779 -116.996311 85 7932ft 122kts
07-Feb-18 20:40 33.681256 -116.960674 84 8637ft 93kts
07-Feb-18 20:41 33.683261 -116.932015 84 9077ft 88kts
07-Feb-18 20:42 33.685395 -116.900975 84 9396ft 98kts
07-Feb-18 20:43 33.687829 -116.864777 85 9504ft 124kts
07-Feb-18 20:44 33.685462 -116.820533 95 9500ft 140kts
07-Feb-18 20:45 33.681466 -116.772934 95 9500ft 145kts
07-Feb-18 20:46 33.677352 -116.724392 95 9499ft 146kts
07-Feb-18 20:47 33.673204 -116.675664 95 9499ft 147kts
07-Feb-18 20:48 33.669063 -116.627310 95 9499ft 147kts
07-Feb-18 20:48 33.665554 -116.586544 95 9499ft 147kts
07-Feb-18 20:50 33.660623 -116.529513 95 9499ft 147kts
07-Feb-18 20:51 33.656346 -116.480272 95 9360ft 156kts
07-Feb-18 20:52 33.651614 -116.426199 95 8917ft 167kts
07-Feb-18 20:52 33.647512 -116.379570 95 8549ft 169kts
07-Feb-18 20:54 33.641841 -116.315387 96 8042ft 164kts
07-Feb-18 20:54 33.637826 -116.270089 96 7666ft 163kts
07-Feb-18 20:55 33.633008 -116.216003 96 7216ft 162kts
07-Feb-18 20:56 33.628424 -116.165019 96 7303ft 133kts
07-Feb-18 20:57 33.627343 -116.120329 91 7363ft 131kts
07-Feb-18 20:58 33.626566 -116.076001 91 7404ft 138kts
07-Feb-18 20:59 33.625680 -116.027691 91 7403ft 148kts
07-Feb-18 21:00 33.624738 -115.977603 91 7403ft 151kts
07-Feb-18 21:01 33.623771 -115.927110 91 7403ft 151kts
07-Feb-18 21:02 33.622800 -115.876714 91 7421ft 151kts
07-Feb-18 21:03 33.621801 -115.826151 91 7421ft 152kts
07-Feb-18 21:04 33.620778 -115.775419 91 7421ft 152kts
07-Feb-18 21:05 33.619734 -115.724653 91 7421ft 152kts
07-Feb-18 21:06 33.618669 -115.673905 91 7421ft 152kts
07-Feb-18 21:07 33.617587 -115.623291 91 7421ft 152kts
07-Feb-18 21:08 33.616482 -115.572590 91 7421ft 152kts
07-Feb-18 21:09 33.615354 -115.521785 91 7421ft 152kts
07-Feb-18 21:10 33.614207 -115.471045 91 7421ft 152kts
07-Feb-18 21:11 33.613035 -115.420312 91 7421ft 152kts
07-Feb-18 21:12 33.611815 -115.367959 91 7012ft 154kts
07-Feb-18 21:13 33.610628 -115.317856 91 6559ft 148kts
07-Feb-18 21:14 33.609475 -115.269002 91 6109ft 146kts
07-Feb-18 21:15 33.608284 -115.220388 91 5659ft 145kts
07-Feb-18 21:16 33.607065 -115.171847 91 5207ft 145kts
07-Feb-18 21:17 33.605843 -115.123601 91 4758ft 145kts
07-Feb-18 21:18 33.604569 -115.074233 91 4180ft 150kts
07-Feb-18 21:19 33.603248 -115.024006 91 3616ft 149kts
07-Feb-18 21:20 33.601944 -114.975013 91 3163ft 145kts
07-Feb-18 21:21 33.600660 -114.927362 91 2711ft 142kts
07-Feb-18 21:22 33.599364 -114.880027 91 2261ft 141kts
07-Feb-18 21:23 33.598053 -114.832891 91 1811ft 141kts
07-Feb-18 21:24 33.596824 -114.789371 91 1765ft 121kts
07-Feb-18 21:25 33.599009 -114.752071 65 1582ft 108kts
07-Feb-18 21:26 33.607326 -114.723657 90 1126ft 78kts
07-Feb-18 21:27 33.606512 -114.698416 94 1028ft 72kts
07-Feb-18 21:28 33.617017 -114.687669 306 869ft 73kts
07-Feb-18 21:29 33.616367 -114.712059 269 393ft 60kts
07-Feb-18 21:30 33.615692 -114.715977 135 393ft 7kts
07-Feb-18 21:31 33.614104 -114.713158 129 391ft 1kts
07-Feb-18 21:32 33.614151 -114.712769 357 391ft 0kts
07-Feb-18 21:33 33.614152 -114.712769 357 391ft 0kts
07-Feb-18 21:34 33.614152 -114.712769 357 391ft 0kts
07-Feb-18 21:35 33.614152 -114.712769 357 391ft 0kts
07-Feb-18 21:36 33.614152 -114.712769 357 391ft 0kts

Navigation Log

Ident Type
Flight plan parsing failed, navigation log unavailable